createdAt,value
2017-03-10T00:00:54.536Z,0
2017-03-10T00:02:03.167Z,0
2017-03-10T00:03:12.421Z,0
2017-03-10T00:04:21.430Z,0
2017-03-10T00:05:30.838Z,0
2017-03-10T00:06:39.846Z,0
2017-03-10T00:07:48.851Z,0
2017-03-10T00:08:57.446Z,0
2017-03-10T00:10:06.852Z,0
2017-03-10T00:11:16.261Z,0
2017-03-10T00:12:25.266Z,0
2017-03-10T00:13:34.261Z,0
2017-03-10T00:14:43.267Z,0
2017-03-10T00:15:52.683Z,0
2017-03-10T00:17:01.283Z,0
2017-03-10T00:18:10.286Z,0
2017-03-10T00:19:18.882Z,0
2017-03-10T00:20:27.484Z,0
2017-03-10T00:21:36.893Z,0
2017-03-10T00:22:46.684Z,0
2017-03-10T00:23:55.275Z,0
2017-03-10T00:25:05.085Z,0
2017-03-10T00:26:13.695Z,0
2017-03-10T00:27:23.107Z,0
2017-03-10T00:28:32.122Z,0
2017-03-10T00:29:40.714Z,0
2017-03-10T00:30:50.145Z,0
2017-03-10T00:31:59.148Z,0
2017-03-10T00:33:08.151Z,0
2017-03-10T00:34:17.399Z,0
2017-03-10T00:35:25.993Z,0
2017-03-10T00:36:34.631Z,0
2017-03-10T00:37:43.235Z,0
2017-03-10T00:38:52.646Z,0
2017-03-10T00:40:01.244Z,0
2017-03-10T00:41:10.652Z,0
2017-03-10T00:42:19.674Z,0
2017-03-10T00:43:28.275Z,0
2017-03-10T00:44:37.278Z,0
2017-03-10T00:45:45.902Z,0
2017-03-10T00:46:54.916Z,0
2017-03-10T00:48:04.326Z,0
2017-03-10T00:49:14.133Z,0
2017-03-10T00:50:23.130Z,0
2017-03-10T00:51:32.125Z,0
2017-03-10T00:52:40.722Z,0
2017-03-10T00:53:49.326Z,0
2017-03-10T00:54:58.334Z,0
2017-03-10T00:56:06.968Z,0
2017-03-10T00:57:15.600Z,0
2017-03-10T00:58:24.620Z,0
2017-03-10T00:59:33.618Z,0
2017-03-10T01:00:42.650Z,0
2017-03-10T01:01:51.652Z,0
2017-03-10T01:03:00.657Z,0
2017-03-10T01:04:09.670Z,0
2017-03-10T01:05:18.690Z,0
2017-03-10T01:06:27.683Z,0
2017-03-10T01:07:37.078Z,0
2017-03-10T01:08:46.075Z,0
2017-03-10T01:09:55.083Z,0
2017-03-10T01:11:04.897Z,0
2017-03-10T01:12:14.316Z,0
2017-03-10T01:13:23.710Z,0
2017-03-10T01:14:32.711Z,0
2017-03-10T01:15:41.902Z,0
2017-03-10T01:16:50.926Z,0
2017-03-10T01:17:59.546Z,0
2017-03-10T01:19:08.556Z,0
2017-03-10T01:20:17.594Z,0
2017-03-10T01:21:26.612Z,0
2017-03-10T01:22:35.623Z,0
2017-03-10T01:23:45.065Z,0
2017-03-10T01:24:54.480Z,0
2017-03-10T01:26:03.902Z,0
2017-03-10T01:27:12.905Z,0
2017-03-10T01:28:22.710Z,0
2017-03-10T01:29:32.132Z,0
2017-03-10T01:30:41.128Z,0
2017-03-10T01:31:50.551Z,0
2017-03-10T01:33:00.343Z,0
2017-03-10T01:34:08.938Z,0
2017-03-10T01:35:18.364Z,0
2017-03-10T01:36:27.009Z,0
2017-03-10T01:37:36.428Z,0
2017-03-10T01:38:46.664Z,0
2017-03-10T01:39:55.273Z,0
2017-03-10T01:41:04.313Z,0
2017-03-10T01:42:13.318Z,0
2017-03-10T01:43:22.326Z,0
2017-03-10T01:44:31.328Z,0
2017-03-10T01:45:40.344Z,0
2017-03-10T01:46:50.133Z,0
2017-03-10T01:47:59.148Z,0
2017-03-10T01:49:08.141Z,0
2017-03-10T01:50:17.137Z,0
2017-03-10T01:51:26.554Z,0
2017-03-10T01:52:35.958Z,0
2017-03-10T01:53:46.173Z,0
2017-03-10T01:54:55.190Z,0
2017-03-10T01:56:04.190Z,0
2017-03-10T01:57:13.587Z,0
2017-03-10T01:58:22.588Z,0
2017-03-10T01:59:31.613Z,0
2017-03-10T02:00:41.017Z,0
2017-03-10T02:01:50.023Z,0
2017-03-10T02:02:59.016Z,0
2017-03-10T02:04:07.631Z,0
2017-03-10T02:05:16.625Z,0
2017-03-10T02:06:26.039Z,0
2017-03-10T02:07:34.645Z,0
2017-03-10T02:08:44.481Z,0
2017-03-10T02:09:53.097Z,0
2017-03-10T02:11:02.104Z,0
2017-03-10T02:12:11.097Z,0
2017-03-10T02:13:20.508Z,0
2017-03-10T02:14:29.120Z,0
2017-03-10T02:15:38.524Z,0
2017-03-10T02:16:47.521Z,0
2017-03-10T02:17:56.930Z,0
2017-03-10T02:19:06.345Z,0
2017-03-10T02:20:14.941Z,0
2017-03-10T02:21:23.936Z,0
2017-03-10T02:22:32.539Z,0
2017-03-10T02:23:41.533Z,0
2017-03-10T02:24:50.528Z,0
2017-03-10T02:25:59.520Z,0
2017-03-10T02:27:08.130Z,0
2017-03-10T02:28:17.141Z,0
2017-03-10T02:29:26.935Z,0
2017-03-10T02:30:35.527Z,0
2017-03-10T02:31:44.144Z,0
2017-03-10T02:32:52.757Z,0
2017-03-10T02:34:01.773Z,0
2017-03-10T02:35:10.769Z,0
2017-03-10T02:36:19.374Z,0
2017-03-10T02:37:28.773Z,0
2017-03-10T02:38:37.785Z,0
2017-03-10T02:39:46.804Z,0
2017-03-10T02:40:55.801Z,0
2017-03-10T02:42:04.816Z,0
2017-03-10T02:43:14.251Z,0
2017-03-10T02:44:22.850Z,0
2017-03-10T02:45:31.847Z,0
2017-03-10T02:46:40.849Z,0
2017-03-10T02:47:49.865Z,0
2017-03-10T02:48:58.470Z,0
2017-03-10T02:50:07.090Z,0
2017-03-10T02:51:16.908Z,0
2017-03-10T02:52:26.318Z,0
2017-03-10T02:53:34.909Z,0
2017-03-10T02:54:44.315Z,0
2017-03-10T02:55:54.143Z,0
2017-03-10T02:57:03.136Z,0
2017-03-10T02:58:12.142Z,0
2017-03-10T02:59:20.734Z,0
2017-03-10T03:00:30.160Z,0
2017-03-10T03:01:39.151Z,0
2017-03-10T03:02:49.000Z,0
2017-03-10T03:03:57.861Z,0
2017-03-10T03:05:06.852Z,0
2017-03-10T03:06:15.468Z,0
2017-03-10T03:07:24.475Z,0
2017-03-10T03:08:33.487Z,0
2017-03-10T03:09:42.483Z,0
2017-03-10T03:10:51.873Z,0
2017-03-10T03:12:00.893Z,0
2017-03-10T03:13:09.886Z,0
2017-03-10T03:14:18.500Z,0
2017-03-10T03:15:27.521Z,0
2017-03-10T03:16:36.929Z,0
2017-03-10T03:17:46.747Z,0
2017-03-10T03:18:55.755Z,0
2017-03-10T03:20:05.553Z,0
2017-03-10T03:21:14.575Z,0
2017-03-10T03:22:23.701Z,0
2017-03-10T03:23:32.727Z,0
2017-03-10T03:24:41.747Z,0
2017-03-10T03:25:50.787Z,0
2017-03-10T03:27:00.178Z,0
2017-03-10T03:28:08.785Z,0
2017-03-10T03:29:17.782Z,0
2017-03-10T03:30:26.811Z,0
2017-03-10T03:31:36.605Z,0
2017-03-10T03:32:45.228Z,0
2017-03-10T03:33:54.658Z,0
2017-03-10T03:35:03.654Z,0
2017-03-10T03:36:12.264Z,0
2017-03-10T03:37:20.856Z,0
2017-03-10T03:38:29.848Z,0
2017-03-10T03:39:38.469Z,0
2017-03-10T03:40:47.482Z,0
2017-03-10T03:41:56.870Z,0
2017-03-10T03:43:05.468Z,0
2017-03-10T03:44:14.482Z,0
2017-03-10T03:45:23.892Z,0
2017-03-10T03:46:32.899Z,0
2017-03-10T03:47:41.495Z,0
2017-03-10T03:48:50.902Z,0
2017-03-10T03:49:59.929Z,0
2017-03-10T03:51:08.923Z,0
2017-03-10T03:52:17.925Z,0
2017-03-10T03:53:27.317Z,0
2017-03-10T03:54:36.318Z,0
2017-03-10T03:55:44.926Z,0
2017-03-10T03:56:53.930Z,0
2017-03-10T03:58:03.737Z,0
2017-03-10T03:59:12.772Z,0
2017-03-10T04:00:21.374Z,0
2017-03-10T04:01:30.376Z,0
2017-03-10T04:02:39.410Z,0
2017-03-10T04:03:48.432Z,0
2017-03-10T04:04:57.824Z,0
2017-03-10T04:06:06.850Z,0
2017-03-10T04:07:15.868Z,0
2017-03-10T04:08:25.267Z,0
2017-03-10T04:09:34.263Z,0
2017-03-10T04:10:43.283Z,0
2017-03-10T04:11:51.873Z,0
2017-03-10T04:13:00.521Z,0
2017-03-10T04:14:09.142Z,0
2017-03-10T04:15:18.547Z,0
2017-03-10T04:16:27.562Z,0
2017-03-10T04:17:36.578Z,0
2017-03-10T04:18:46.002Z,0
2017-03-10T04:19:55.022Z,0
2017-03-10T04:21:03.625Z,0
2017-03-10T04:22:12.638Z,0
2017-03-10T04:23:21.246Z,0
2017-03-10T04:24:29.855Z,0
2017-03-10T04:25:39.267Z,0
2017-03-10T04:26:48.686Z,0
2017-03-10T04:27:57.679Z,0
2017-03-10T04:29:06.714Z,0
2017-03-10T04:30:15.328Z,0
2017-03-10T04:31:23.926Z,0
2017-03-10T04:32:32.529Z,0
2017-03-10T04:33:41.137Z,0
2017-03-10T04:34:50.556Z,0
2017-03-10T04:35:59.174Z,0
2017-03-10T04:37:08.565Z,0
2017-03-10T04:38:17.985Z,0
2017-03-10T04:39:26.591Z,0
2017-03-10T04:40:35.601Z,0
2017-03-10T04:41:44.749Z,0
2017-03-10T04:42:54.081Z,0
2017-03-10T04:44:03.844Z,0
2017-03-10T04:45:14.087Z,0
2017-03-10T04:46:23.942Z,0
2017-03-10T04:47:33.780Z,0
2017-03-10T04:48:43.983Z,0
2017-03-10T04:49:52.984Z,0
2017-03-10T04:51:02.380Z,0
2017-03-10T04:52:11.000Z,0
2017-03-10T04:53:20.010Z,0
2017-03-10T04:54:29.402Z,0
2017-03-10T04:55:38.011Z,0
2017-03-10T04:56:46.998Z,0
2017-03-10T04:57:56.414Z,0
2017-03-10T04:59:05.028Z,0
2017-03-10T05:00:14.025Z,0
2017-03-10T05:01:23.055Z,0
2017-03-10T05:02:32.050Z,0
2017-03-10T05:03:41.471Z,0
2017-03-10T05:04:50.098Z,0
2017-03-10T05:05:59.091Z,0
2017-03-10T05:07:08.085Z,0
2017-03-10T05:08:17.074Z,0
2017-03-10T05:09:26.064Z,0
2017-03-10T05:10:35.056Z,0
2017-03-10T05:11:43.657Z,0
2017-03-10T05:12:52.288Z,0
2017-03-10T05:14:01.288Z,0
2017-03-10T05:15:10.307Z,0
2017-03-10T05:16:20.111Z,0
2017-03-10T05:17:28.712Z,0
2017-03-10T05:18:37.721Z,0
2017-03-10T05:19:46.342Z,0
2017-03-10T05:20:55.729Z,0
2017-03-10T05:22:04.750Z,0
2017-03-10T05:23:13.356Z,0
2017-03-10T05:24:22.384Z,0
2017-03-10T05:25:32.190Z,0
2017-03-10T05:26:40.783Z,0
2017-03-10T05:27:50.182Z,0
2017-03-10T05:28:59.191Z,0
2017-03-10T05:30:08.201Z,0
2017-03-10T05:31:16.841Z,0
2017-03-10T05:32:25.877Z,0
2017-03-10T05:33:35.291Z,0
2017-03-10T05:34:43.911Z,0
2017-03-10T05:35:52.907Z,0
2017-03-10T05:37:02.730Z,0
2017-03-10T05:38:11.737Z,0
2017-03-10T05:39:20.746Z,0
2017-03-10T05:40:30.146Z,0
2017-03-10T05:41:38.764Z,0
2017-03-10T05:42:48.198Z,0
2017-03-10T05:43:57.590Z,0
2017-03-10T05:45:06.626Z,0
2017-03-10T05:46:15.243Z,0
2017-03-10T05:47:23.850Z,0
2017-03-10T05:48:32.505Z,0
2017-03-10T05:49:41.943Z,0
2017-03-10T05:50:50.547Z,0
2017-03-10T05:51:59.959Z,0
2017-03-10T05:53:08.557Z,5
2017-03-10T05:54:17.153Z,5
2017-03-10T05:55:25.762Z,5
2017-03-10T05:56:34.362Z,5
2017-03-10T05:57:43.368Z,5
2017-03-10T05:58:51.977Z,5
2017-03-10T06:00:00.579Z,5
2017-03-10T06:01:09.608Z,10
2017-03-10T06:02:19.013Z,10
2017-03-10T06:03:28.030Z,10
2017-03-10T06:04:37.020Z,10
2017-03-10T06:05:46.439Z,10
2017-03-10T06:06:55.494Z,15
2017-03-10T06:08:04.131Z,15
2017-03-10T06:09:12.741Z,15
2017-03-10T06:10:21.385Z,15
2017-03-10T06:11:30.818Z,20
2017-03-10T06:12:39.816Z,20
2017-03-10T06:13:49.208Z,20
2017-03-10T06:14:58.288Z,25
2017-03-10T06:16:08.105Z,25
2017-03-10T06:17:16.713Z,25
2017-03-10T06:18:26.123Z,25
2017-03-10T06:19:35.152Z,30
2017-03-10T06:20:44.572Z,30
2017-03-10T06:21:53.207Z,30
2017-03-10T06:23:01.838Z,35
2017-03-10T06:24:11.262Z,35
2017-03-10T06:25:20.690Z,35
2017-03-10T06:26:29.688Z,40
2017-03-10T06:27:38.311Z,40
2017-03-10T06:28:47.308Z,40
2017-03-10T06:29:56.346Z,45
2017-03-10T06:31:05.361Z,45
2017-03-10T06:32:14.388Z,45
2017-03-10T06:33:22.994Z,50
2017-03-10T06:34:31.994Z,50
2017-03-10T06:35:41.819Z,50
2017-03-10T06:36:50.828Z,55
2017-03-10T06:37:59.435Z,55
2017-03-10T06:39:09.247Z,60
2017-03-10T06:40:18.244Z,60
2017-03-10T06:41:27.243Z,60
2017-03-10T06:42:37.063Z,65
2017-03-10T06:44:15.386Z,65
2017-03-10T06:45:24.470Z,70
2017-03-10T06:46:33.871Z,70
2017-03-10T06:47:42.904Z,70
2017-03-10T06:48:51.929Z,75
2017-03-10T06:50:01.330Z,75
2017-03-10T06:51:11.128Z,75
2017-03-10T06:52:20.189Z,80
2017-03-10T06:53:29.256Z,85
2017-03-10T06:54:38.285Z,85
2017-03-10T06:55:47.705Z,80
2017-03-10T06:56:56.703Z,85
2017-03-10T06:58:05.728Z,85
2017-03-10T06:59:14.721Z,95
2017-03-10T07:00:23.710Z,95
2017-03-10T07:01:33.526Z,115
2017-03-10T07:02:42.516Z,105
2017-03-10T07:03:51.529Z,105
2017-03-10T07:05:00.540Z,100
2017-03-10T07:06:09.151Z,105
2017-03-10T07:07:17.742Z,110
2017-03-10T07:08:26.744Z,105
2017-03-10T07:09:35.360Z,105
2017-03-10T07:10:45.180Z,105
2017-03-10T07:11:54.172Z,110
2017-03-10T07:13:03.237Z,130
2017-03-10T07:14:12.235Z,125
2017-03-10T07:15:21.244Z,110
2017-03-10T07:16:30.257Z,120
2017-03-10T07:17:39.663Z,125
2017-03-10T07:18:48.672Z,125
2017-03-10T07:19:57.686Z,110
2017-03-10T07:21:06.302Z,105
2017-03-10T07:22:15.324Z,105
2017-03-10T07:23:24.329Z,100
2017-03-10T07:24:33.734Z,125
2017-03-10T07:25:43.581Z,110
2017-03-10T07:26:53.517Z,105
2017-03-10T07:28:02.659Z,120
2017-03-10T07:29:11.282Z,120
2017-03-10T07:30:20.277Z,115
2017-03-10T07:31:30.081Z,110
2017-03-10T07:32:38.956Z,105
2017-03-10T07:33:47.561Z,135
2017-03-10T07:34:57.021Z,140
2017-03-10T07:36:05.670Z,155
2017-03-10T07:37:15.070Z,160
2017-03-10T07:38:24.069Z,170
2017-03-10T07:39:32.666Z,165
2017-03-10T07:40:41.332Z,155
2017-03-10T07:41:50.380Z,125
2017-03-10T07:42:58.990Z,125
2017-03-10T07:44:08.030Z,140
2017-03-10T07:45:16.636Z,150
2017-03-10T07:46:25.856Z,160
2017-03-10T07:47:34.455Z,165
2017-03-10T07:48:43.092Z,170
2017-03-10T07:49:51.768Z,165
2017-03-10T07:51:00.844Z,145
2017-03-10T07:52:11.443Z,170
2017-03-10T07:53:20.882Z,140
2017-03-10T07:54:29.911Z,130
2017-03-10T07:55:38.911Z,160
2017-03-10T07:56:47.905Z,150
2017-03-10T07:57:56.551Z,140
2017-03-10T07:59:05.581Z,150
2017-03-10T08:00:14.214Z,145
2017-03-10T08:01:24.015Z,155
2017-03-10T08:02:33.188Z,145
2017-03-10T08:03:42.221Z,160
2017-03-10T08:04:51.236Z,175
2017-03-10T08:06:00.300Z,170
2017-03-10T08:07:08.901Z,180
2017-03-10T08:08:17.506Z,180
2017-03-10T08:09:26.138Z,175
2017-03-10T08:10:35.948Z,170
2017-03-10T08:11:44.948Z,190
2017-03-10T08:12:53.962Z,195
2017-03-10T08:14:02.580Z,170
2017-03-10T08:15:11.205Z,150
2017-03-10T08:16:21.014Z,190
2017-03-10T08:17:29.630Z,200
2017-03-10T08:18:38.256Z,165
2017-03-10T08:19:47.659Z,210
2017-03-10T08:20:56.279Z,240
2017-03-10T08:22:04.943Z,245
2017-03-10T08:23:13.556Z,305
2017-03-10T08:24:22.965Z,335
2017-03-10T08:25:31.586Z,340
2017-03-10T08:26:40.456Z,320
2017-03-10T08:27:49.455Z,310
2017-03-10T08:28:58.477Z,285
2017-03-10T08:30:07.515Z,235
2017-03-10T08:31:16.934Z,175
2017-03-10T08:32:25.546Z,185
2017-03-10T08:33:34.688Z,210
2017-03-10T08:34:43.301Z,220
2017-03-10T08:35:53.105Z,220
2017-03-10T08:37:01.722Z,250
2017-03-10T08:38:10.747Z,280
2017-03-10T08:39:20.181Z,300
2017-03-10T08:40:28.795Z,290
2017-03-10T08:41:37.815Z,285
2017-03-10T08:42:46.807Z,270
2017-03-10T08:43:56.235Z,270
2017-03-10T08:45:04.859Z,200
2017-03-10T08:46:14.305Z,190
2017-03-10T08:47:23.323Z,230
2017-03-10T08:48:32.327Z,250
2017-03-10T08:49:41.330Z,230
2017-03-10T08:50:49.939Z,215
2017-03-10T08:51:58.950Z,225
2017-03-10T08:53:09.097Z,235
2017-03-10T08:54:18.114Z,245
2017-03-10T08:55:26.729Z,225
2017-03-10T08:56:35.738Z,205
2017-03-10T08:57:44.347Z,215
2017-03-10T08:58:52.971Z,250
2017-03-10T09:00:01.618Z,295
2017-03-10T09:01:10.433Z,275
2017-03-10T09:02:19.440Z,225
2017-03-10T09:03:31.190Z,205
2017-03-10T09:04:40.881Z,210
2017-03-10T09:05:49.655Z,245
2017-03-10T09:06:58.684Z,285
2017-03-10T09:08:08.102Z,290
2017-03-10T09:09:18.517Z,290
2017-03-10T09:10:27.918Z,290
2017-03-10T09:11:36.539Z,260
2017-03-10T09:12:45.154Z,205
2017-03-10T09:13:53.825Z,180
2017-03-10T09:15:02.884Z,175
2017-03-10T09:16:14.808Z,160
2017-03-10T09:17:23.950Z,165
2017-03-10T09:18:33.354Z,195
2017-03-10T09:19:42.786Z,245
2017-03-10T09:20:51.396Z,315
2017-03-10T09:22:00.071Z,305
2017-03-10T09:23:09.096Z,250
2017-03-10T09:24:17.749Z,240
2017-03-10T09:25:26.774Z,215
2017-03-10T09:26:35.786Z,235
2017-03-10T09:27:45.274Z,220
2017-03-10T09:28:54.713Z,210
2017-03-10T09:30:03.756Z,195
2017-03-10T09:31:12.775Z,220
2017-03-10T09:32:21.780Z,265
2017-03-10T09:33:30.792Z,280
2017-03-10T09:34:39.807Z,295
2017-03-10T09:35:48.812Z,310
2017-03-10T09:36:58.223Z,340
2017-03-10T09:38:07.234Z,265
2017-03-10T09:39:16.232Z,220
2017-03-10T09:40:25.249Z,235
2017-03-10T09:41:34.258Z,255
2017-03-10T09:42:43.654Z,245
2017-03-10T09:43:52.281Z,275
2017-03-10T09:45:00.903Z,280
2017-03-10T09:46:10.353Z,235
2017-03-10T09:47:19.374Z,190
2017-03-10T09:48:28.775Z,185
2017-03-10T09:49:37.783Z,165
2017-03-10T09:50:46.380Z,150
2017-03-10T09:51:55.809Z,135
2017-03-10T09:53:04.422Z,140
2017-03-10T09:54:13.031Z,150
2017-03-10T09:55:22.176Z,145
2017-03-10T09:56:31.224Z,130
2017-03-10T09:57:39.838Z,135
2017-03-10T09:58:48.443Z,130
2017-03-10T09:59:57.841Z,130
2017-03-10T10:01:06.459Z,135
2017-03-10T10:02:16.319Z,140
2017-03-10T10:03:24.929Z,145
2017-03-10T10:04:33.557Z,150
2017-03-10T10:05:43.008Z,145
2017-03-10T10:06:52.002Z,150
2017-03-10T10:08:00.630Z,145
2017-03-10T10:09:09.655Z,145
2017-03-10T10:10:18.654Z,145
2017-03-10T10:11:27.712Z,145
2017-03-10T10:12:36.725Z,150
2017-03-10T10:13:45.740Z,135
2017-03-10T10:14:55.605Z,150
2017-03-10T10:16:05.043Z,150
2017-03-10T10:17:14.077Z,155
2017-03-10T10:18:23.096Z,185
2017-03-10T10:19:32.152Z,180
2017-03-10T10:20:40.866Z,170
2017-03-10T10:21:50.269Z,165
2017-03-10T10:22:58.877Z,150
2017-03-10T10:24:08.319Z,150
2017-03-10T10:25:17.340Z,150
2017-03-10T10:26:26.385Z,155
2017-03-10T10:27:36.456Z,160
2017-03-10T10:28:45.078Z,160
2017-03-10T10:29:53.677Z,150
2017-03-10T10:31:02.292Z,170
2017-03-10T10:32:11.702Z,220
2017-03-10T10:33:21.533Z,225
2017-03-10T10:34:30.550Z,215
2017-03-10T10:35:39.148Z,220
2017-03-10T10:36:48.181Z,210
2017-03-10T10:37:56.781Z,200
2017-03-10T10:39:05.835Z,220
2017-03-10T10:40:14.442Z,250
2017-03-10T10:41:23.873Z,265
2017-03-10T10:42:33.275Z,270
2017-03-10T10:43:42.296Z,235
2017-03-10T10:44:51.306Z,220
2017-03-10T10:45:59.939Z,220
2017-03-10T10:47:08.655Z,210
2017-03-10T10:48:17.278Z,190
2017-03-10T10:49:26.483Z,165
2017-03-10T10:50:35.528Z,155
2017-03-10T10:51:44.172Z,140
2017-03-10T10:52:53.574Z,125
2017-03-10T10:54:02.177Z,130
2017-03-10T10:55:11.204Z,140
2017-03-10T10:56:20.223Z,145
2017-03-10T10:57:28.827Z,145
2017-03-10T10:58:37.435Z,145
2017-03-10T10:59:46.443Z,145
2017-03-10T11:00:55.107Z,150
2017-03-10T11:02:04.143Z,145
2017-03-10T11:03:12.787Z,145
2017-03-10T11:04:22.203Z,140
2017-03-10T11:05:31.197Z,140
2017-03-10T11:06:40.626Z,145
2017-03-10T11:07:49.629Z,145
2017-03-10T11:08:59.444Z,145
2017-03-10T11:10:08.193Z,145
2017-03-10T11:11:17.264Z,140
2017-03-10T11:12:25.943Z,140
2017-03-10T11:13:35.354Z,140
2017-03-10T11:14:44.375Z,145
2017-03-10T11:15:52.991Z,145
2017-03-10T11:17:01.889Z,140
2017-03-10T11:18:10.898Z,140
2017-03-10T11:19:19.916Z,140
2017-03-10T11:20:28.515Z,140
2017-03-10T11:21:37.546Z,140
2017-03-10T11:22:46.539Z,140
2017-03-10T11:23:55.537Z,140
2017-03-10T11:25:04.947Z,140
2017-03-10T11:26:13.964Z,145
2017-03-10T11:27:23.225Z,150
2017-03-10T11:28:32.231Z,145
2017-03-10T11:29:41.629Z,145
2017-03-10T11:30:50.647Z,145
2017-03-10T11:32:00.443Z,145
2017-03-10T11:33:10.258Z,145
2017-03-10T11:34:18.859Z,145
2017-03-10T11:35:28.284Z,145
2017-03-10T11:36:37.753Z,145
2017-03-10T11:37:47.441Z,145
2017-03-10T11:38:56.454Z,150
2017-03-10T11:40:05.086Z,145
2017-03-10T11:41:13.734Z,145
2017-03-10T11:42:22.750Z,145
2017-03-10T11:43:31.764Z,140
2017-03-10T11:44:40.766Z,140
2017-03-10T11:45:49.966Z,140
2017-03-10T11:46:58.984Z,140
2017-03-10T11:48:08.245Z,140
2017-03-10T11:49:17.256Z,145
2017-03-10T11:50:26.258Z,145
2017-03-10T11:51:35.661Z,150
2017-03-10T11:52:44.756Z,145
2017-03-10T11:53:54.573Z,145
2017-03-10T11:55:03.587Z,140
2017-03-10T11:56:13.025Z,140
2017-03-10T11:57:22.033Z,145
2017-03-10T11:58:30.953Z,145
2017-03-10T11:59:40.398Z,150
2017-03-10T12:00:49.829Z,150
2017-03-10T12:01:59.227Z,150
2017-03-10T12:03:08.225Z,150
2017-03-10T12:04:16.829Z,150
2017-03-10T12:05:25.853Z,150
2017-03-10T12:06:34.877Z,150
2017-03-10T12:07:43.902Z,155
2017-03-10T12:08:52.915Z,160
2017-03-10T12:10:02.572Z,170
2017-03-10T12:11:11.365Z,180
2017-03-10T12:12:20.918Z,175
2017-03-10T12:13:29.960Z,160
2017-03-10T12:14:39.045Z,155
2017-03-10T12:15:48.078Z,180
2017-03-10T12:16:57.129Z,190
2017-03-10T12:18:06.219Z,195
2017-03-10T12:19:15.242Z,195
2017-03-10T12:20:24.391Z,190
2017-03-10T12:21:34.063Z,185
2017-03-10T12:22:43.572Z,185
2017-03-10T12:23:52.636Z,205
2017-03-10T12:25:02.080Z,200
2017-03-10T12:26:11.907Z,205
2017-03-10T12:27:21.356Z,190
2017-03-10T12:28:29.987Z,185
2017-03-10T12:29:39.020Z,180
2017-03-10T12:30:48.060Z,180
2017-03-10T12:31:57.934Z,185
2017-03-10T12:33:06.573Z,175
2017-03-10T12:34:15.580Z,175
2017-03-10T12:35:24.215Z,175
2017-03-10T12:36:33.240Z,170
2017-03-10T12:37:42.281Z,160
2017-03-10T12:38:50.928Z,155
2017-03-10T12:39:59.557Z,155
2017-03-10T12:41:08.600Z,155
2017-03-10T12:42:18.147Z,155
2017-03-10T12:43:27.599Z,160
2017-03-10T12:44:40.095Z,160
2017-03-10T12:45:48.754Z,165
2017-03-10T12:46:57.418Z,170
2017-03-10T12:48:06.452Z,170
2017-03-10T12:49:15.524Z,170
2017-03-10T12:50:24.945Z,165
2017-03-10T12:51:33.984Z,165
2017-03-10T12:52:42.665Z,165
2017-03-10T12:53:51.309Z,165
2017-03-10T12:55:00.705Z,160
2017-03-10T12:56:09.703Z,165
2017-03-10T12:57:18.727Z,160
2017-03-10T12:58:28.163Z,160
2017-03-10T12:59:37.166Z,165
2017-03-10T13:00:46.167Z,160
2017-03-10T13:01:55.379Z,160
2017-03-10T13:03:04.808Z,160
2017-03-10T13:04:13.414Z,160
2017-03-10T13:05:22.450Z,160
2017-03-10T13:06:31.460Z,160
2017-03-10T13:07:40.879Z,160
2017-03-10T13:08:49.884Z,160
2017-03-10T13:09:58.489Z,160
2017-03-10T13:11:07.097Z,160
2017-03-10T13:12:16.510Z,150
2017-03-10T13:13:25.510Z,145
2017-03-10T13:14:34.926Z,145
2017-03-10T13:15:43.526Z,140
2017-03-10T13:16:52.541Z,150
2017-03-10T13:18:01.565Z,140
2017-03-10T13:19:10.571Z,140
2017-03-10T13:20:20.181Z,155
2017-03-10T13:21:29.670Z,155
2017-03-10T13:22:39.077Z,165
2017-03-10T13:23:48.887Z,160
2017-03-10T13:24:57.529Z,155
2017-03-10T13:26:06.522Z,155
2017-03-10T13:27:15.135Z,150
2017-03-10T13:28:24.180Z,155
2017-03-10T13:29:34.011Z,150
2017-03-10T13:30:43.008Z,150
2017-03-10T13:31:52.037Z,150
2017-03-10T13:33:00.647Z,150
2017-03-10T13:34:09.262Z,155
2017-03-10T13:35:18.687Z,150
2017-03-10T13:36:27.696Z,150
2017-03-10T13:37:37.093Z,145
2017-03-10T13:38:46.108Z,145
2017-03-10T13:39:55.122Z,130
2017-03-10T13:41:03.719Z,130
2017-03-10T13:42:12.579Z,135
2017-03-10T13:43:21.171Z,130
2017-03-10T13:44:30.985Z,130
2017-03-10T13:45:39.985Z,130
2017-03-10T13:46:49.792Z,125
2017-03-10T13:47:59.204Z,125
2017-03-10T13:49:07.819Z,130
2017-03-10T13:50:16.811Z,130
2017-03-10T13:51:26.209Z,140
2017-03-10T13:52:35.481Z,135
2017-03-10T13:53:44.083Z,135
2017-03-10T13:54:52.716Z,140
2017-03-10T13:56:01.310Z,150
2017-03-10T13:57:10.319Z,170
2017-03-10T13:58:18.930Z,175
2017-03-10T13:59:27.530Z,190
2017-03-10T14:00:36.560Z,195
2017-03-10T14:01:45.180Z,195
2017-03-10T14:02:54.209Z,195
2017-03-10T14:04:03.234Z,200
2017-03-10T14:05:11.853Z,205
2017-03-10T14:06:20.527Z,210
2017-03-10T14:07:29.526Z,215
2017-03-10T14:08:38.843Z,225
2017-03-10T14:09:47.542Z,230
2017-03-10T14:10:56.991Z,230
2017-03-10T14:12:05.993Z,235
2017-03-10T14:13:15.032Z,240
2017-03-10T14:14:23.662Z,240
2017-03-10T14:15:32.280Z,245
2017-03-10T14:16:41.704Z,250
2017-03-10T14:17:50.340Z,255
2017-03-10T14:18:59.369Z,260
2017-03-10T14:20:07.982Z,260
2017-03-10T14:21:17.379Z,260
2017-03-10T14:22:26.921Z,265
2017-03-10T14:23:36.329Z,275
2017-03-10T14:24:45.345Z,280
2017-03-10T14:25:54.357Z,290
2017-03-10T14:27:04.164Z,290
2017-03-10T14:28:13.617Z,285
2017-03-10T14:29:22.251Z,285
2017-03-10T14:30:30.917Z,275
2017-03-10T14:31:40.336Z,265
2017-03-10T14:32:49.745Z,260
2017-03-10T14:33:59.146Z,265
2017-03-10T14:35:07.750Z,270
2017-03-10T14:36:16.757Z,270
2017-03-10T14:37:26.177Z,260
2017-03-10T14:38:34.773Z,245
2017-03-10T14:39:44.576Z,240
2017-03-10T14:40:53.577Z,230
2017-03-10T14:42:02.611Z,230
2017-03-10T14:43:12.020Z,230
2017-03-10T14:44:21.438Z,230
2017-03-10T14:45:30.455Z,225
2017-03-10T14:46:39.868Z,220
2017-03-10T14:47:49.279Z,225
2017-03-10T14:48:57.909Z,215
2017-03-10T14:50:07.321Z,215
2017-03-10T14:51:16.359Z,210
2017-03-10T14:52:25.764Z,205
2017-03-10T14:53:34.784Z,205
2017-03-10T14:54:43.652Z,205
2017-03-10T14:55:52.651Z,205
2017-03-10T14:57:01.262Z,205
2017-03-10T14:58:10.291Z,205
2017-03-10T14:59:19.307Z,200
2017-03-10T15:00:28.714Z,200
2017-03-10T15:01:37.709Z,200
2017-03-10T15:02:46.320Z,200
2017-03-10T15:03:54.934Z,195
2017-03-10T15:05:04.181Z,195
2017-03-10T15:06:12.860Z,195
2017-03-10T15:07:21.864Z,195
2017-03-10T15:08:31.290Z,195
2017-03-10T15:09:40.293Z,195
2017-03-10T15:10:49.321Z,200
2017-03-10T15:11:58.732Z,205
2017-03-10T15:13:07.339Z,205
2017-03-10T15:14:16.338Z,205
2017-03-10T15:15:25.340Z,205
2017-03-10T15:16:34.374Z,205
2017-03-10T15:17:42.986Z,205
2017-03-10T15:18:52.411Z,205
2017-03-10T15:20:01.035Z,205
2017-03-10T15:21:10.047Z,210
2017-03-10T15:22:18.660Z,200
2017-03-10T15:23:27.267Z,200
2017-03-10T15:24:37.477Z,205
2017-03-10T15:25:46.248Z,200
2017-03-10T15:26:55.262Z,190
2017-03-10T15:28:04.372Z,185
2017-03-10T15:29:13.834Z,185
2017-03-10T15:30:22.835Z,180
2017-03-10T15:31:32.259Z,175
2017-03-10T15:32:41.259Z,175
2017-03-10T15:33:50.276Z,180
2017-03-10T15:34:59.275Z,180
2017-03-10T15:36:08.279Z,175
2017-03-10T15:37:17.289Z,175
2017-03-10T15:38:26.328Z,175
2017-03-10T15:39:35.747Z,170
2017-03-10T15:40:44.761Z,160
2017-03-10T15:41:53.782Z,150
2017-03-10T15:43:03.221Z,150
2017-03-10T15:44:12.976Z,145
2017-03-10T15:45:21.570Z,145
2017-03-10T15:46:30.170Z,145
2017-03-10T15:47:39.591Z,145
2017-03-10T15:48:48.591Z,140
2017-03-10T15:49:57.224Z,135
2017-03-10T15:51:06.251Z,130
2017-03-10T15:52:15.250Z,125
2017-03-10T15:53:24.258Z,120
2017-03-10T15:54:33.259Z,115
2017-03-10T15:55:41.867Z,110
2017-03-10T15:56:50.880Z,105
2017-03-10T15:57:59.536Z,105
2017-03-10T15:59:08.958Z,100
2017-03-10T16:00:17.976Z,100
2017-03-10T16:01:26.984Z,95
2017-03-10T16:02:35.999Z,95
2017-03-10T16:03:44.994Z,95
2017-03-10T16:04:53.594Z,90
2017-03-10T16:06:02.998Z,95
2017-03-10T16:07:11.612Z,90
2017-03-10T16:08:20.639Z,90
2017-03-10T16:09:31.135Z,90
2017-03-10T16:10:40.219Z,90
2017-03-10T16:11:49.638Z,90
2017-03-10T16:12:58.692Z,90
2017-03-10T16:14:07.709Z,85
2017-03-10T16:15:16.343Z,85
2017-03-10T16:16:25.009Z,80
2017-03-10T16:17:33.641Z,75
2017-03-10T16:18:43.083Z,75
2017-03-10T16:19:52.734Z,75